Dunaujvaros, Hungary
Current Conditions -  °F | °C
As of 12:00 PM on Saturday 20 Dec 2014 (Local Time) from LHBP Reporting Station
Few Clouds Few Clouds  
Wind Chill: 40°   Ceiling: Unl
Heat Index: 48°   Visibility: 6mi
Dew Point: 34°   Wind: 24mph
Humidity: 57%   Direction: 300°WNW
Pressure: 30.15"   Gusts: 36mph
Location:  46.98°N, 18.93°E
Report Text: LHBP 201000Z 30021G31KT 9999 FEW035 09/01 Q1021 NOSIG
Loading
Personal Weather Stations






























Interactive Weather Map New forecast layout! Learn more

10-Day Weather Forecast

Advertisements
Track Severe Weather on mobile